Skip Navigation Links
NOAA logo - Click to go to the NOAA homepage
NOAA's National Weather Service
Alaska Aviation Weather Unit
  NWS logo - Click to go to the NWS homepage
Left Navbar Graphic     23 AKDT = 07 GMT

   
NOAA is celebrating 200 years of science, service, and stewardship. Visit the NOAA 200th celebration Web site to learn more.
USA.gov is the U.S. Government's official Web portal to all Federal, state and local government Web resources and services.
Facebook
NWS on Facebook

Important Change Regarding the AAWU Web Presence

 

Over the last several months, the AAWU has been working to navigate its webpages to a nationally supported server. Security, as well as other needs, have necessitated the change.  In the process, we have made an effort to enhance the functionality of our website, as well as some of our products. As of June 20, 2017, aawu.arh.noaa.gov will be discontinued. The new AAWU web address is weather.gov/aawu. It is now live and will run in-parallel with the old site until it is discontinued. Please send any feedback or questions regarding the new webpages to nws.ar.aawu.webauthors@noaa.gov.  Thank you for your patience during this time of transition.
AAWU Home :: Display TAF Add Bookmark
METAR PACM 240156Z AUTO 13009KT 10SM BKN050 OVC070 08/M03 A2975 RMK AO2
     SLP070 T00831028=

METAR PACM 240256Z AUTO 12007G15KT 10SM -RA SCT028 BKN034 OVC043 06/01
     A2974 RMK AO2 RAB42 SLP066 P0000 60000 T00610011 58011=

METAR PACM 240356Z AUTO 15005KT 10SM -RA OVC039 06/02 A2972 RMK AO2
     SLP059 P0000 T00610017=

METAR PACM 240456Z AUTO 00000KT 10SM -RA BKN026 OVC033 05/01 A2970 RMK
     AO2 SLP052 P0001 T00500011=

METAR PACM 240556Z AUTO 30006KT 10SM -RA OVC013 04/02 A2967 RMK AO2
     SLP045 P0003 60004 T00440022 10089 20044 58021=

METAR PACM 240656Z AUTO 30005KT 10SM -RA OVC013 04/03 A2966 RMK AO2
     SLP039 P0001 T00440028=

SPECI PACM 240728Z AUTO 31005KT 10SM -RA FEW009 OVC014 04/03 A2965 RMK
     AO2 P0000=


NOAA's National Weather Service
Alaska Aviation Weather Unit
6930 Sand Lake Road
Anchorage, AK 99502-1845
Disclaimer
Credits
Glossary
Privacy Policy
About Us
Career Opportunities
Contact AAWU Internet Services Site last modified: April, 17th 2012